Time;durP1;ratioP1;P1;durP2;ratioP2;P2;SDS_P1;SDS_P2;PMS_P1;PMS_P2;Temp;Humidity;BMP_temperature;BMP_pressure;BME280_temperature;BME280_humidity;BME280_pressure;Samples;Min_cycle;Max_cycle;Signal;HPM_P1;HPM_P2
2021/07/19 00:00:36;;;;;;;;;;;;;;;21.08;83.59;98103.21;1753903;81;26048;-87
2021/07/19 00:03:05;;;;;;;;;;;;;;;21.03;83.58;98102.93;1752890;81;20416;-87
2021/07/19 00:05:31;;;;;;;;;;;;;;;20.96;83.59;98100.66;1756815;81;20485;-87
2021/07/19 00:07:57;;;;;;;;;;;;;;;20.90;83.62;98104.04;1755082;80;25022;-87
2021/07/19 00:10:24;;;;;;;;;;;;;;;20.88;83.55;98107.41;1726271;81;20321;-88
2021/07/19 00:12:51;;;;;;;;;;;;;;;20.87;83.51;98111.89;1752735;81;26116;-87
2021/07/19 00:15:18;;;;;;;;;;;;;;;20.81;83.51;98105.95;1756114;80;25719;-87
2021/07/19 00:17:45;;;;;;;;;;;;;;;20.85;83.50;98103.75;1757763;81;20294;-87
2021/07/19 00:20:12;;;;;;;;;;;;;;;20.91;83.53;98105.70;1752471;80;24946;-87
2021/07/19 00:22:38;;;;;;;;;;;;;;;20.88;83.51;98105.57;1745988;81;22147;-88
2021/07/19 00:25:08;;;;;;;;;;;;;;;20.83;83.48;98106.61;1744352;81;26149;-87
2021/07/19 00:27:34;;;;;;;;;;;;;;;20.78;83.41;98108.16;1745657;82;24416;-87
2021/07/19 00:30:00;;;;;;;;;;;;;;;20.71;83.36;98110.70;1746603;82;20772;-87
2021/07/19 00:32:32;;;;;;;;;;;;;;;20.57;83.27;98119.94;1744685;82;24940;-87
2021/07/19 00:34:57;;;;;;;;;;;;;;;20.50;83.16;98121.17;1748109;82;21991;-87
2021/07/19 00:37:23;;;;;;;;;;;;;;;20.45;83.13;98119.05;1748605;82;20970;-87
2021/07/19 00:39:49;;;;;;;;;;;;;;;20.44;83.13;98123.20;1746008;82;20246;-87
2021/07/19 00:42:15;;;;;;;;;;;;;;;20.39;83.14;98125.07;1747066;82;20242;-87
2021/07/19 00:44:42;;;;;;;;;;;;;;;20.40;83.14;98127.23;1747684;80;25019;-88
2021/07/19 00:47:10;;;;;;;;;;;;;;;20.42;83.17;98130.02;1744937;82;22121;-88
2021/07/19 00:49:36;;;;;;;;;;;;;;;20.36;83.12;98133.37;1748987;82;26001;-87
2021/07/19 00:52:02;;;;;;;;;;;;;;;20.40;83.16;98133.87;1741711;82;24501;-87
2021/07/19 00:54:30;;;;;;;;;;;;;;;20.39;83.21;98133.05;1746155;82;20526;-87
2021/07/19 00:56:56;;;;;;;;;;;;;;;20.42;83.24;98134.01;1744732;80;24377;-87
2021/07/19 00:59:27;;;;;;;;;;;;;;;20.43;83.27;98137.00;1742974;82;22094;-87
2021/07/19 01:01:53;;;;;;;;;;;;;;;20.44;83.28;98137.33;1746894;82;26024;-87
2021/07/19 01:04:20;;;;;;;;;;;;;;;20.49;83.31;98138.63;1746689;82;25271;-88
2021/07/19 01:06:53;;;;;;;;;;;;;;;20.46;83.33;98141.95;1744998;82;20143;-87
2021/07/19 01:09:16;;;;;;;;;;;;;;;20.51;83.29;98143.27;1743099;82;25023;-88
2021/07/19 01:11:42;;;;;;;;;;;;;;;20.57;83.29;98150.52;1746207;82;20410;-87
2021/07/19 01:14:10;;;;;;;;;;;;;;;20.71;83.30;98149.77;1717604;82;21194;-87
2021/07/19 01:16:36;;;;;;;;;;;;;;;20.81;83.28;98147.69;1746491;82;24033;-87
2021/07/19 01:19:05;;;;;;;;;;;;;;;20.85;83.27;98147.64;1744345;82;20655;-87
2021/07/19 01:21:33;;;;;;;;;;;;;;;20.91;83.27;98144.27;1756177;81;25030;-87
2021/07/19 01:24:10;;;;;;;;;;;;;;;20.95;83.23;98141.57;1760478;81;22175;-87
2021/07/19 01:26:44;;;;;;;;;;;;;;;20.87;83.15;98144.31;1762161;81;25986;-87
2021/07/19 01:29:13;;;;;;;;;;;;;;;20.68;83.11;98144.28;1762967;81;24722;-86
2021/07/19 01:31:40;;;;;;;;;;;;;;;20.56;83.04;98140.91;1759580;81;20303;-86
2021/07/19 01:34:11;;;;;;;;;;;;;;;20.44;83.02;98139.98;1759681;81;25038;-86
2021/07/19 01:36:39;;;;;;;;;;;;;;;20.33;82.97;98137.73;1759215;81;21901;-87
2021/07/19 01:39:07;;;;;;;;;;;;;;;20.29;82.92;98137.70;1761155;81;26071;-87
2021/07/19 01:41:34;;;;;;;;;;;;;;;20.25;82.90;98138.23;1738928;81;24298;-87
2021/07/19 01:44:00;;;;;;;;;;;;;;;20.18;82.89;98134.64;1758421;81;20223;-87
2021/07/19 01:46:27;;;;;;;;;;;;;;;20.09;82.87;98131.19;1762822;80;25185;-87
2021/07/19 01:48:59;;;;;;;;;;;;;;;20.07;82.87;98130.55;1758836;81;20159;-87
2021/07/19 01:51:25;;;;;;;;;;;;;;;20.03;82.88;98139.84;1762623;81;26065;-87
2021/07/19 01:53:52;;;;;;;;;;;;;;;19.99;82.92;98141.20;1759025;81;24371;-87
2021/07/19 01:56:18;;;;;;;;;;;;;;;19.93;82.92;98140.07;1763374;81;20234;-87
2021/07/19 01:58:45;;;;;;;;;;;;;;;19.96;82.95;98134.42;1761577;81;25024;-87
2021/07/19 02:01:12;;;;;;;;;;;;;;;19.98;83.00;98135.56;1762181;81;22029;-87
2021/07/19 02:03:38;;;;;;;;;;;;;;;20.05;83.06;98133.37;1763833;81;26055;-87
2021/07/19 02:06:05;;;;;;;;;;;;;;;20.22;83.10;98130.12;1737984;81;24353;-87
2021/07/19 02:08:32;;;;;;;;;;;;;;;20.35;83.11;98142.85;1762386;81;20311;-88
2021/07/19 02:10:59;;;;;;;;;;;;;;;20.46;83.13;98143.77;1760753;80;25749;-88
2021/07/19 02:13:26;;;;;;;;;;;;;;;20.52;83.10;98144.41;1762752;81;21964;-88
2021/07/19 02:15:53;;;;;;;;;;;;;;;20.53;83.06;98142.58;1763986;81;25984;-87
2021/07/19 02:18:21;;;;;;;;;;;;;;;20.54;83.05;98146.39;1761434;81;24507;-87
2021/07/19 02:20:47;;;;;;;;;;;;;;;20.57;82.99;98141.20;1759063;81;20873;-87
2021/07/19 02:23:14;;;;;;;;;;;;;;;20.62;82.94;98142.86;1747921;82;20792;-87
2021/07/19 02:25:41;;;;;;;;;;;;;;;20.62;82.85;98148.18;1745365;82;22086;-87
2021/07/19 02:28:09;;;;;;;;;;;;;;;20.62;82.77;98148.18;1706324;82;25859;-87
2021/07/19 02:30:35;;;;;;;;;;;;;;;20.64;82.69;98147.48;1744053;82;24627;-88
2021/07/19 02:33:03;;;;;;;;;;;;;;;20.61;82.63;98149.18;1746718;80;20466;-88
2021/07/19 02:35:31;;;;;;;;;;;;;;;20.57;82.58;98151.84;1746013;82;25789;-88
2021/07/19 02:38:02;;;;;;;;;;;;;;;20.57;82.55;98147.36;1746249;82;22229;-88
2021/07/19 02:40:29;;;;;;;;;;;;;;;20.60;82.47;98146.19;1748990;82;26648;-87
2021/07/19 02:43:06;;;;;;;;;;;;;;;20.60;82.41;98151.01;1746490;82;24654;-88
2021/07/19 02:45:35;;;;;;;;;;;;;;;20.54;82.36;98148.22;1744073;82;20168;-88
2021/07/19 02:48:01;;;;;;;;;;;;;;;20.32;82.33;98147.20;1741883;82;24972;-88
2021/07/19 02:50:28;;;;;;;;;;;;;;;20.20;82.32;98149.89;1747497;82;21931;-88
2021/07/19 02:53:02;;;;;;;;;;;;;;;20.16;82.32;98149.92;1747501;82;26843;-87
2021/07/19 02:55:30;;;;;;;;;;;;;;;20.14;82.32;98152.74;1745346;82;24466;-87
2021/07/19 02:57:57;;;;;;;;;;;;;;;20.14;82.31;98154.57;1746753;82;20136;-88
2021/07/19 03:00:24;;;;;;;;;;;;;;;20.16;82.26;98150.75;1744366;82;25187;-87
2021/07/19 03:02:57;;;;;;;;;;;;;;;20.22;82.23;98155.38;1744429;82;20219;-88
2021/07/19 03:05:25;;;;;;;;;;;;;;;20.22;82.19;98158.53;1746585;82;26033;-87
2021/07/19 03:07:52;;;;;;;;;;;;;;;20.16;82.16;98160.05;1748033;82;24412;-87
2021/07/19 03:10:20;;;;;;;;;;;;;;;20.19;82.12;98162.34;1747140;82;20208;-87
2021/07/19 03:12:47;;;;;;;;;;;;;;;20.18;82.06;98164.70;1744542;82;24973;-87
2021/07/19 03:15:16;;;;;;;;;;;;;;;20.16;82.04;98169.35;1745251;82;22048;-87
2021/07/19 03:17:43;;;;;;;;;;;;;;;20.14;82.00;98170.52;1747278;82;26190;-88
2021/07/19 03:20:11;;;;;;;;;;;;;;;20.19;81.98;98172.98;1744609;82;24525;-88
2021/07/19 03:22:38;;;;;;;;;;;;;;;20.25;81.95;98168.30;1746184;81;20540;-88
2021/07/19 03:25:06;;;;;;;;;;;;;;;20.26;81.93;98167.30;1746202;82;25633;-87
2021/07/19 03:27:32;;;;;;;;;;;;;;;20.26;81.90;98161.98;1743083;82;22111;-88
2021/07/19 03:30:04;;;;;;;;;;;;;;;20.16;81.90;98164.53;1747180;82;26668;-88
2021/07/19 03:32:30;;;;;;;;;;;;;;;20.02;81.91;98168.73;1743672;82;24307;-88
2021/07/19 03:34:56;;;;;;;;;;;;;;;19.94;81.92;98166.13;1744396;82;20175;-88
2021/07/19 03:37:22;;;;;;;;;;;;;;;19.98;81.94;98164.28;1745463;82;24982;-88
2021/07/19 03:39:50;;;;;;;;;;;;;;;20.05;81.95;98158.61;1745483;82;21922;-88
2021/07/19 03:42:16;;;;;;;;;;;;;;;20.05;81.97;98163.92;1745165;82;26797;-88
2021/07/19 03:44:42;;;;;;;;;;;;;;;20.04;81.97;98159.61;1747530;82;24595;-88
2021/07/19 03:47:13;;;;;;;;;;;;;;;20.06;82.00;98162.10;1717184;82;20549;-88
2021/07/19 03:49:40;;;;;;;;;;;;;;;20.07;82.01;98160.27;1746337;82;25674;-88
2021/07/19 03:52:06;;;;;;;;;;;;;;;20.10;82.04;98161.24;1743670;82;22011;-88
2021/07/19 03:54:34;;;;;;;;;;;;;;;20.04;82.08;98162.27;1715868;82;21213;-88
2021/07/19 03:57:01;;;;;;;;;;;;;;;20.02;82.11;98159.44;1747968;82;20907;-88
2021/07/19 03:59:28;;;;;;;;;;;;;;;20.02;82.14;98164.75;1746442;82;20466;-88
2021/07/19 04:01:54;;;;;;;;;;;;;;;20.10;82.17;98164.73;1745358;82;24958;-88
2021/07/19 04:04:50;;;;;;;;;;;;;;;20.20;82.19;98160.52;1749213;82;21974;-88
2021/07/19 04:07:10;;;;;;;;;;;;;;;20.24;82.20;98162.65;1740887;82;26089;-87
2021/07/19 04:09:38;;;;;;;;;;;;;;;20.17;82.26;98160.38;1746068;82;25023;-87
2021/07/19 04:12:05;;;;;;;;;;;;;;;20.18;82.30;98161.22;1743643;82;20274;-87
2021/07/19 04:14:31;;;;;;;;;;;;;;;20.20;82.36;98161.84;1746089;82;25027;-87
2021/07/19 04:16:57;;;;;;;;;;;;;;;20.24;82.36;98163.14;1743926;82;21993;-87
2021/07/19 04:19:23;;;;;;;;;;;;;;;20.23;82.39;98169.49;1745486;80;26022;-87
2021/07/19 04:21:51;;;;;;;;;;;;;;;20.18;82.37;98170.02;1746667;81;24579;-87
2021/07/19 04:24:25;;;;;;;;;;;;;;;20.15;82.40;98169.02;1763545;81;20150;-87
2021/07/19 04:26:51;;;;;;;;;;;;;;;20.15;82.45;98169.02;1758835;81;24994;-87
2021/07/19 04:29:25;;;;;;;;;;;;;;;20.12;82.52;98170.71;1765714;80;36019;-87
2021/07/19 04:31:55;;;;;;;;;;;;;;;20.11;82.58;98167.72;1762910;81;26088;-87
2021/07/19 04:34:26;;;;;;;;;;;;;;;20.19;82.66;98172.14;1763071;81;24544;-87
2021/07/19 04:36:55;;;;;;;;;;;;;;;20.20;82.73;98169.32;1735168;81;20243;-87
2021/07/19 04:39:21;;;;;;;;;;;;;;;20.25;82.80;98168.30;1764299;81;24945;-87
2021/07/19 04:41:47;;;;;;;;;;;;;;;20.26;82.85;98167.30;1764646;81;22036;-87
2021/07/19 04:44:13;;;;;;;;;;;;;;;20.28;82.86;98167.97;1760953;81;26015;-87
2021/07/19 04:46:39;;;;;;;;;;;;;;;20.38;82.89;98173.08;1763369;81;20236;-87
2021/07/19 04:49:08;;;;;;;;;;;;;;;20.45;82.87;98169.56;1764764;81;20424;-89
2021/07/19 04:51:35;;;;;;;;;;;;;;;20.54;82.89;98169.49;1764955;81;25766;-88
2021/07/19 04:54:01;;;;;;;;;;;;;;;20.57;82.88;98171.78;1755199;81;22325;-88
2021/07/19 04:56:29;;;;;;;;;;;;;;;20.61;82.89;98171.78;1760928;81;26035;-87
2021/07/19 04:58:55;;;;;;;;;;;;;;;20.64;82.87;98168.75;1760659;81;24419;-87
2021/07/19 05:01:24;;;;;;;;;;;;;;;20.72;82.84;98168.71;1758490;81;20459;-87
2021/07/19 05:03:53;;;;;;;;;;;;;;;20.69;82.81;98176.53;1757494;81;25792;-87
2021/07/19 05:06:21;;;;;;;;;;;;;;;20.69;82.78;98172.54;1763592;80;22007;-87
2021/07/19 05:08:49;;;;;;;;;;;;;;;20.76;82.77;98171.33;1760050;80;26637;-87
2021/07/19 05:11:16;;;;;;;;;;;;;;;20.74;82.68;98176.82;1762474;81;24640;-87
2021/07/19 05:13:42;;;;;;;;;;;;;;;20.79;82.67;98173.63;1760344;80;20230;-87
2021/07/19 05:16:10;;;;;;;;;;;;;;;20.83;82.63;98174.45;1761410;80;25016;-87
2021/07/19 05:18:36;;;;;;;;;;;;;;;20.87;82.61;98178.90;1759855;81;21981;-87
2021/07/19 05:21:03;;;;;;;;;;;;;;;20.90;82.58;98185.17;1760835;81;21191;-87
2021/07/19 05:23:29;;;;;;;;;;;;;;;20.88;82.47;98185.38;1764221;80;25306;-87
2021/07/19 05:25:55;;;;;;;;;;;;;;;20.82;82.32;98180.77;1763320;81;20233;-87
2021/07/19 05:28:21;;;;;;;;;;;;;;;20.81;82.19;98182.27;1761949;81;25092;-88
2021/07/19 05:30:51;;;;;;;;;;;;;;;20.83;82.15;98182.42;1765131;81;20358;-88
2021/07/19 05:33:19;;;;;;;;;;;;;;;20.92;82.12;98174.37;1764510;81;26016;-88
2021/07/19 05:35:51;;;;;;;;;;;;;;;20.93;82.02;98174.20;1731398;82;24456;-88
2021/07/19 05:38:17;;;;;;;;;;;;;;;20.88;81.90;98175.23;1765957;81;20210;-87
2021/07/19 05:40:43;;;;;;;;;;;;;;;20.97;81.80;98178.65;1754527;81;24966;-87
2021/07/19 05:43:10;;;;;;;;;;;;;;;21.00;81.70;98181.77;1766292;81;22054;-88
2021/07/19 05:45:37;;;;;;;;;;;;;;;21.02;81.54;98173.11;1763052;81;26193;-88
2021/07/19 05:48:04;;;;;;;;;;;;;;;20.99;81.44;98182.80;1764938;81;25048;-88
2021/07/19 05:50:30;;;;;;;;;;;;;;;20.84;81.10;98180.06;1762360;81;20235;-88
2021/07/19 05:52:57;;;;;;;;;;;;;;;20.78;80.88;98181.30;1766602;81;20293;-87
2021/07/19 05:55:35;;;;;;;;;;;;;;;20.89;80.79;98175.56;1765518;80;22715;-88
2021/07/19 05:58:02;;;;;;;;;;;;;;;20.93;80.75;98172.87;1760516;81;26074;-88
2021/07/19 06:00:43;;;;;;;;;;;;;;;20.86;80.56;98167.92;1762452;81;25282;-88
2021/07/19 06:03:09;;;;;;;;;;;;;;;20.90;80.44;98173.20;1763325;81;20316;-87
2021/07/19 06:05:37;;;;;;;;;;;;;;;20.90;80.24;98170.55;1766784;81;20754;-87
2021/07/19 06:08:04;;;;;;;;;;;;;;;20.85;80.11;98171.58;1756311;79;22067;-88
2021/07/19 06:10:30;;;;;;;;;;;;;;;20.90;79.93;98174.53;1734469;81;26040;-88
2021/07/19 06:12:56;;;;;;;;;;;;;;;20.97;79.92;98176.81;1756656;81;20268;-88
2021/07/19 06:15:23;;;;;;;;;;;;;;;21.00;79.83;98178.30;1760089;81;20505;-87
2021/07/19 06:17:50;;;;;;;;;;;;;;;21.01;79.77;98176.77;1762076;81;25107;-88
2021/07/19 06:20:18;;;;;;;;;;;;;;;21.08;79.70;98183.05;1764688;81;22633;-88
2021/07/19 06:22:53;;;;;;;;;;;;;;;21.07;79.59;98178.72;1758642;81;26623;-87
2021/07/19 06:25:19;;;;;;;;;;;;;;;21.02;79.39;98187.75;1734675;81;24372;-88
2021/07/19 06:27:45;;;;;;;;;;;;;;;20.96;79.14;98187.13;1763022;81;20233;-88
2021/07/19 06:30:14;;;;;;;;;;;;;;;20.96;78.99;98190.28;1762017;81;25646;-87
2021/07/19 06:32:40;;;;;;;;;;;;;;;21.01;78.92;98186.59;1763117;81;22017;-87
2021/07/19 06:35:08;;;;;;;;;;;;;;;21.02;78.80;98182.42;1763126;81;26168;-87
2021/07/19 06:37:34;;;;;;;;;;;;;;;21.02;78.58;98186.92;1762128;81;24688;-87
2021/07/19 06:40:00;;;;;;;;;;;;;;;21.02;78.34;98181.59;1762333;81;20227;-87
2021/07/19 06:42:26;;;;;;;;;;;;;;;21.03;78.09;98184.09;1762534;81;20206;-87
2021/07/19 06:44:57;;;;;;;;;;;;;;;21.05;77.85;98182.09;1763724;81;21865;-86
2021/07/19 06:47:25;;;;;;;;;;;;;;;21.09;77.68;98177.22;1759259;81;25956;-86
2021/07/19 06:49:52;;;;;;;;;;;;;;;21.16;77.51;98181.69;1759323;80;24450;-86
2021/07/19 06:52:18;;;;;;;;;;;;;;;21.17;77.34;98182.48;1760291;81;20254;-86
2021/07/19 06:54:50;;;;;;;;;;;;;;;21.15;77.13;98188.02;1761583;80;25016;-86
2021/07/19 06:57:17;;;;;;;;;;;;;;;21.12;76.80;98183.50;1759153;81;22276;-86
2021/07/19 06:59:45;;;;;;;;;;;;;;;21.17;76.55;98189.97;1759282;81;26125;-86
2021/07/19 07:02:11;;;;;;;;;;;;;;;21.22;76.35;98190.25;1761382;81;24494;-85
2021/07/19 07:04:44;;;;;;;;;;;;;;;21.26;76.14;98194.23;1763776;81;20452;-85
2021/07/19 07:07:10;;;;;;;;;;;;;;;21.42;76.09;98195.91;1758745;81;24800;-86
2021/07/19 07:09:39;;;;;;;;;;;;;;;21.59;76.08;98196.58;1763154;79;22046;-86
2021/07/19 07:12:08;;;;;;;;;;;;;;;21.69;76.04;98199.80;1764867;79;26049;-86
2021/07/19 07:14:34;;;;;;;;;;;;;;;21.80;76.00;98205.17;1763651;79;20248;-86
2021/07/19 07:17:01;;;;;;;;;;;;;;;21.80;75.87;98210.50;1762594;80;21517;-85
2021/07/19 07:19:27;;;;;;;;;;;;;;;21.79;75.67;98210.17;1760990;81;24982;-86
2021/07/19 07:21:53;;;;;;;;;;;;;;;21.78;75.43;98210.67;1763779;81;21959;-87
2021/07/19 07:24:25;;;;;;;;;;;;;;;21.79;75.14;98213.66;1761432;80;26018;-86
2021/07/19 07:26:52;;;;;;;;;;;;;;;21.75;74.73;98207.56;1760461;81;24482;-86
2021/07/19 07:29:18;;;;;;;;;;;;;;;21.65;74.25;98206.50;1761840;81;20210;-85
2021/07/19 07:31:45;;;;;;;;;;;;;;;21.58;73.84;98213.06;1760521;81;25849;-86
2021/07/19 07:34:11;;;;;;;;;;;;;;;21.57;73.54;98208.73;1738003;81;20490;-86
2021/07/19 07:36:38;;;;;;;;;;;;;;;21.68;73.32;98209.63;1764336;81;25655;-85
2021/07/19 07:39:04;;;;;;;;;;;;;;;21.75;73.10;98205.73;1761857;81;24554;-86
2021/07/19 07:41:30;;;;;;;;;;;;;;;21.92;72.99;98198.38;1762856;79;20873;-86
2021/07/19 07:43:57;;;;;;;;;;;;;;;22.04;72.88;98204.91;1763474;81;25082;-86
2021/07/19 07:46:23;;;;;;;;;;;;;;;22.10;72.61;98206.83;1761610;81;22049;-86
2021/07/19 07:48:51;;;;;;;;;;;;;;;22.06;72.18;98205.56;1760627;79;25995;-86
2021/07/19 07:51:17;;;;;;;;;;;;;;;22.09;71.91;98204.67;1761641;80;25118;-86
2021/07/19 07:53:43;;;;;;;;;;;;;;;22.19;71.65;98208.91;1762865;79;20350;-86
2021/07/19 07:56:09;;;;;;;;;;;;;;;22.32;71.49;98205.88;1764081;80;25004;-86
2021/07/19 07:58:36;;;;;;;;;;;;;;;22.43;71.30;98207.23;1766030;79;21984;-86
2021/07/19 08:01:02;;;;;;;;;;;;;;;22.53;71.12;98206.42;1764376;81;25913;-86
2021/07/19 08:03:28;;;;;;;;;;;;;;;22.58;70.86;98210.72;1763083;81;23973;-86
2021/07/19 08:05:54;;;;;;;;;;;;;;;22.62;70.58;98206.66;1762035;80;20320;-86
2021/07/19 08:08:20;;;;;;;;;;;;;;;22.71;70.38;98205.54;1762408;81;24936;-86
2021/07/19 08:10:47;;;;;;;;;;;;;;;22.79;70.12;98196.09;1762841;79;20311;-86
2021/07/19 08:13:13;;;;;;;;;;;;;;;22.89;69.94;98199.27;1763918;79;26019;-86
2021/07/19 08:15:39;;;;;;;;;;;;;;;22.82;69.44;98200.20;1764458;81;24580;-87
2021/07/19 08:18:05;;;;;;;;;;;;;;;22.77;69.05;98196.78;1762013;81;20305;-86
2021/07/19 08:20:31;;;;;;;;;;;;;;;22.74;68.70;98201.68;1762404;81;25028;-86
2021/07/19 08:22:57;;;;;;;;;;;;;;;22.76;68.46;98195.63;1762216;81;20261;-86
2021/07/19 08:25:23;;;;;;;;;;;;;;;22.73;68.11;98194.18;1764359;81;26089;-86
2021/07/19 08:27:50;;;;;;;;;;;;;;;22.74;67.86;98187.00;1738235;81;24739;-86
2021/07/19 08:30:17;;;;;;;;;;;;;;;22.76;67.61;98196.45;1761288;81;20476;-86
2021/07/19 08:32:45;;;;;;;;;;;;;;;22.80;67.38;98197.72;1760426;79;25026;-87
2021/07/19 08:35:13;;;;;;;;;;;;;;;22.79;67.00;98196.09;1763385;81;22161;-88
2021/07/19 08:37:47;;;;;;;;;;;;;;;22.75;66.59;98194.80;1762362;80;26621;-87
2021/07/19 08:40:14;;;;;;;;;;;;;;;22.75;66.25;98197.97;1758583;81;25429;-87
2021/07/19 08:42:41;;;;;;;;;;;;;;;22.77;66.00;98193.28;1762858;81;20207;-87
2021/07/19 08:45:11;;;;;;;;;;;;;;;22.84;65.82;98187.00;1763120;81;24998;-88
2021/07/19 08:47:44;;;;;;;;;;;;;;;22.88;65.53;98186.94;1763529;81;22011;-87
2021/07/19 08:50:14;;;;;;;;;;;;;;;22.97;65.38;98184.95;1759030;81;26115;-87
2021/07/19 08:52:40;;;;;;;;;;;;;;;23.11;65.29;98191.25;1763626;81;24598;-87
2021/07/19 08:55:08;;;;;;;;;;;;;;;23.14;65.04;98189.52;1763309;81;20528;-87
2021/07/19 08:57:34;;;;;;;;;;;;;;;23.18;64.78;98193.47;1761864;81;25016;-87
2021/07/19 09:00:01;;;;;;;;;;;;;;;23.23;64.56;98184.38;1764494;79;22038;-87
2021/07/19 09:02:31;;;;;;;;;;;;;;;23.22;64.26;98182.72;1760314;81;26157;-88
2021/07/19 09:04:58;;;;;;;;;;;;;;;23.26;64.00;98185.30;1756399;80;24404;-88
2021/07/19 09:07:24;;;;;;;;;;;;;;;23.26;63.65;98182.63;1761400;81;20588;-88
2021/07/19 09:09:51;;;;;;;;;;;;;;;23.30;63.47;98178.05;1757968;81;25025;-88
2021/07/19 09:12:19;;;;;;;;;;;;;;;23.39;63.16;98176.58;1740849;82;22142;-88
2021/07/19 09:14:48;;;;;;;;;;;;;;;23.45;62.89;98175.30;1682176;84;26162;-88
2021/07/19 09:17:24;;;;;;;;;;;;;;;23.49;62.64;98174.42;1702877;83;24608;-88
2021/07/19 09:19:50;;;;;;;;;;;;;;;23.42;62.13;98168.99;1702825;83;20241;-88
2021/07/19 09:22:24;;;;;;;;;;;;;;;23.42;61.69;98169.50;1700781;83;24954;-88
2021/07/19 09:24:50;;;;;;;;;;;;;;;23.42;61.27;98168.99;1713808;83;21993;-88
2021/07/19 09:27:17;;;;;;;;;;;;;;;23.52;61.08;98170.84;1713524;83;26751;-88
2021/07/19 09:29:43;;;;;;;;;;;;;;;23.64;60.92;98163.10;1706414;82;24653;-88
2021/07/19 09:32:11;;;;;;;;;;;;;;;23.72;60.70;98168.30;1712513;83;20275;-88
2021/07/19 09:34:48;;;;;;;;;;;;;;;23.78;60.47;98166.19;1702230;84;24842;-88
2021/07/19 09:37:19;;;;;;;;;;;;;;;23.84;60.25;98164.03;1701682;84;21994;-87
2021/07/19 09:39:49;;;;;;;;;;;;;;;23.89;60.05;98168.81;1721924;81;26712;-88
2021/07/19 09:42:16;;;;;;;;;;;;;;;23.89;59.75;98172.31;1701535;84;24565;-88
2021/07/19 09:44:44;;;;;;;;;;;;;;;23.94;59.45;98170.38;1701477;84;20319;-87
2021/07/19 09:47:12;;;;;;;;;;;;;;;24.13;59.31;98164.28;1715867;82;24769;-88
2021/07/19 09:49:41;;;;;;;;;;;;;;;24.31;59.26;98170.45;1710399;83;22105;-87
2021/07/19 09:52:08;;;;;;;;;;;;;;;24.43;59.28;98165.67;1683378;84;25520;-87
2021/07/19 09:54:42;;;;;;;;;;;;;;;24.47;59.04;98163.41;1709366;83;24794;-87
2021/07/19 09:57:10;;;;;;;;;;;;;;;24.51;58.78;98159.30;1728623;82;20240;-88
2021/07/19 09:59:37;;;;;;;;;;;;;;;24.52;58.56;98156.42;1730275;82;25033;-87
2021/07/19 10:02:08;;;;;;;;;;;;;;;24.41;58.16;98151.66;1729525;82;21951;-87
2021/07/19 10:04:43;;;;;;;;;;;;;;;24.34;57.86;98159.34;1729993;82;26678;-87
2021/07/19 10:07:09;;;;;;;;;;;;;;;24.33;57.66;98149.69;1730033;82;24695;-87
2021/07/19 10:09:37;;;;;;;;;;;;;;;24.39;57.55;98148.86;1731030;82;20314;-87
2021/07/19 10:12:05;;;;;;;;;;;;;;;24.50;57.47;98144.26;1726646;82;24997;-87
2021/07/19 10:14:35;;;;;;;;;;;;;;;24.52;57.27;98140.37;1730546;82;22888;-87
2021/07/19 10:17:04;;;;;;;;;;;;;;;24.55;57.07;98148.48;1735140;80;25991;-87
2021/07/19 10:19:32;;;;;;;;;;;;;;;24.51;56.73;98146.74;1717500;82;24514;-87
2021/07/19 10:22:03;;;;;;;;;;;;;;;24.50;56.56;98145.09;1666801;84;20268;-87
2021/07/19 10:24:41;;;;;;;;;;;;;;;24.55;56.37;98141.28;1694950;83;25025;-87
2021/07/19 10:27:08;;;;;;;;;;;;;;;24.63;56.17;98138.12;1707413;82;21869;-88
2021/07/19 10:29:34;;;;;;;;;;;;;;;24.66;55.95;98136.39;1731171;82;26006;-88
2021/07/19 10:32:01;;;;;;;;;;;;;;;24.68;55.75;98138.33;1738326;82;20439;-87
2021/07/19 10:34:27;;;;;;;;;;;;;;;24.80;55.61;98137.53;1714789;82;20242;-87
2021/07/19 10:37:07;;;;;;;;;;;;;;;24.90;55.53;98130.45;1734005;82;20931;-87
2021/07/19 10:39:39;;;;;;;;;;;;;;;24.95;55.30;98129.33;1736583;82;21973;-87
2021/07/19 10:42:07;;;;;;;;;;;;;;;25.06;55.19;98124.69;1734074;81;25579;-87
2021/07/19 10:44:37;;;;;;;;;;;;;;;25.20;55.02;98124.98;1735704;82;24425;-87
2021/07/19 10:47:23;;;;;;;;;;;;;;;25.20;54.56;98124.19;1710683;81;20936;-87
2021/07/19 10:49:56;;;;;;;;;;;;;;;25.33;54.56;98120.95;1696662;84;24991;-87
2021/07/19 10:52:34;;;;;;;;;;;;;;;25.37;54.28;98124.86;1709050;83;22199;-88
2021/07/19 10:55:07;;;;;;;;;;;;;;;25.30;53.99;98121.39;1721021;81;26836;-88
2021/07/19 10:57:37;;;;;;;;;;;;;;;25.09;53.37;98122.95;1720059;83;24495;-88
2021/07/19 11:00:06;;;;;;;;;;;;;;;24.97;53.02;98117.91;1719575;83;20256;-87
2021/07/19 11:02:35;;;;;;;;;;;;;;;25.09;53.02;98114.92;1730776;81;25006;-85
2021/07/19 11:05:01;;;;;;;;;;;;;;;25.20;52.93;98118.28;1743622;81;21940;-88
2021/07/19 11:07:29;;;;;;;;;;;;;;;25.18;52.71;98127.06;1705892;83;26079;-87
2021/07/19 11:09:55;;;;;;;;;;;;;;;25.11;52.41;98123.55;1711779;83;24593;-88
2021/07/19 11:12:22;;;;;;;;;;;;;;;25.13;52.22;98121.50;1711745;82;20222;-88
2021/07/19 11:14:58;;;;;;;;;;;;;;;25.23;52.16;98115.20;1703671;83;24926;-88
2021/07/19 11:17:22;;;;;;;;;;;;;;;25.25;51.86;98110.48;1732359;81;22746;-87
2021/07/19 11:19:56;;;;;;;;;;;;;;;25.27;51.63;98107.56;1735616;82;26026;-86
2021/07/19 11:22:23;;;;;;;;;;;;;;;25.29;51.52;98109.02;1736350;81;24430;-86
2021/07/19 11:24:51;;;;;;;;;;;;;;;25.32;51.42;98115.28;1727520;81;20211;-86
2021/07/19 11:27:22;;;;;;;;;;;;;;;25.38;51.16;98114.45;1734883;82;25008;-87
2021/07/19 11:29:49;;;;;;;;;;;;;;;25.42;51.02;98108.98;1702269;82;22034;-87
2021/07/19 11:32:20;;;;;;;;;;;;;;;25.60;51.07;98112.89;1702315;83;25984;-87
2021/07/19 11:34:52;;;;;;;;;;;;;;;25.64;50.79;98104.77;1707712;83;24463;-87
2021/07/19 11:37:18;;;;;;;;;;;;;;;25.63;50.55;98103.94;1704771;84;20225;-87
2021/07/19 11:39:52;;;;;;;;;;;;;;;25.57;50.43;98099.41;1706812;82;25778;-87
2021/07/19 11:42:29;;;;;;;;;;;;;;;25.62;50.46;98099.60;1695451;84;22062;-86
2021/07/19 11:45:03;;;;;;;;;;;;;;;25.68;50.45;98096.08;1697653;82;25858;-87
2021/07/19 11:47:30;;;;;;;;;;;;;;;25.71;50.42;98092.97;1699957;82;24636;-87
2021/07/19 11:50:04;;;;;;;;;;;;;;;25.76;50.35;98089.13;1737387;81;20294;-87
2021/07/19 11:52:30;;;;;;;;;;;;;;;25.94;50.41;98091.64;1731231;81;25662;-87
2021/07/19 11:54:56;;;;;;;;;;;;;;;26.11;50.43;98083.42;1733206;82;22041;-88
2021/07/19 11:57:26;;;;;;;;;;;;;;;26.06;50.04;98086.75;1711773;82;26016;-87
2021/07/19 11:59:52;;;;;;;;;;;;;;;25.98;49.78;98085.63;1734324;82;24463;-88
2021/07/19 12:02:26;;;;;;;;;;;;;;;25.86;49.47;98083.86;1733700;82;21037;-86
2021/07/19 12:04:53;;;;;;;;;;;;;;;25.76;49.43;98085.11;1736977;81;24527;-86
2021/07/19 12:07:26;;;;;;;;;;;;;;;25.71;49.31;98082.75;1728760;82;22002;-88
2021/07/19 12:10:03;;;;;;;;;;;;;;;25.68;49.09;98077.31;1729942;82;26207;-87
2021/07/19 12:12:29;;;;;;;;;;;;;;;25.58;48.83;98076.12;1713633;83;25274;-87
2021/07/19 12:14:57;;;;;;;;;;;;;;;25.57;48.81;98071.78;1728481;82;20171;-87
2021/07/19 12:17:29;;;;;;;;;;;;;;;25.60;48.77;98069.50;1711339;83;25234;-87
2021/07/19 12:19:58;;;;;;;;;;;;;;;25.67;48.67;98068.97;1716865;83;22770;-87
2021/07/19 12:22:35;;;;;;;;;;;;;;;25.89;48.93;98063.30;1714738;83;26923;-87
2021/07/19 12:25:01;;;;;;;;;;;;;;;26.04;48.95;98061.98;1733934;81;24518;-87
2021/07/19 12:27:33;;;;;;;;;;;;;;;26.19;48.97;98058.48;1709114;82;20325;-88
2021/07/19 12:30:00;;;;;;;;;;;;;;;26.33;48.90;98057.94;1737143;82;25571;-88
2021/07/19 12:32:27;;;;;;;;;;;;;;;26.33;48.71;98056.59;1698020;82;21962;-87
2021/07/19 12:34:53;;;;;;;;;;;;;;;26.40;48.77;98054.70;1698132;83;26048;-88
2021/07/19 12:37:20;;;;;;;;;;;;;;;26.27;48.26;98045.38;1732155;82;20288;-87
2021/07/19 12:39:53;;;;;;;;;;;;;;;26.21;48.10;98044.87;1715262;83;20332;-88
2021/07/19 12:42:24;;;;;;;;;;;;;;;26.31;48.09;98043.08;1737249;81;25752;-87
2021/07/19 12:44:55;;;;;;;;;;;;;;;26.32;47.98;98035.34;1686188;84;21964;-87
2021/07/19 12:47:23;;;;;;;;;;;;;;;26.30;47.82;98038.23;1695646;84;26739;-87
2021/07/19 12:49:50;;;;;;;;;;;;;;;26.46;47.97;98031.50;1737133;82;24597;-87
2021/07/19 12:52:20;;;;;;;;;;;;;;;26.62;48.11;98017.58;1716093;82;20260;-88